^^
Datos históricos de la estación: Murcia-Puente Tocinos
Diario Informe para Julio 30, 2019 Unidades:  Ambas    Ingés   Métrico
Diario Semanal Mensual Anual
  Máxima: Mínima: Promedio:
Temperatura: 63.9 °F /  17.7 °C 51.6 °F /  10.9 °C 58.6 °F /  14.8 °C
Punto de rocio: 40.6 °F /  4.8 °C 31.6 °F /  -0.2 °C 36.7 °F /  2.6 °C
Humedad: 61% 30% 45%
Velocidad viento: 12.3mph /  19.8km/h - 5.2mph /  8.4km/h
Racha viento: 26.5mph /  42.6km/h - -
Viento- - SO
Presión: 29.9 in /  1011.9 hPa 29.8 in /  1008.2 hPa -
Precipitación: 0 in /  0.0 mm    
 
 
Tabla de datos para Julio 30, 2019
Hora Temperatura Punto de rocio Presión Viento Velocidad viento Racha viento Humedad Intensidad lluvia(por hora) Nubes
00:04 58.5 °F /  14.7 °C 39.4 °F /  4.1 °C 29.8in /  1009.8hPa ESE 2.9mph /  4.6km/h 5mph /  8km/h 49% 0in /  0.0mm
00:09 58.3 °F /  14.6 °C 39.2 °F /  4 °C 29.8in /  1009.8hPa NO 2.6mph /  4.2km/h 5.8mph /  9.3km/h 49% 0in /  0.0mm
00:14 58.5 °F /  14.7 °C 39.4 °F /  4.1 °C 29.8in /  1009.8hPa SSO 2.4mph /  3.9km/h 9.7mph /  15.6km/h 49.3% 0in /  0.0mm
00:19 58.6 °F /  14.8 °C 39.6 °F /  4.2 °C 29.8in /  1009.9hPa SSE 3.1mph /  5km/h 10mph /  16.1km/h 49% 0in /  0.0mm
00:24 58.8 °F /  14.9 °C 39.7 °F /  4.3 °C 29.8in /  1009.9hPa SE 3.6mph /  5.8km/h 6.9mph /  11.1km/h 49% 0in /  0.0mm
00:29 58.8 °F /  14.9 °C 39.7 °F /  4.3 °C 29.8in /  1009.9hPa SSO 3.3mph /  5.3km/h 12.7mph /  20.4km/h 49% 0in /  0.0mm
00:34 59.2 °F /  15.1 °C 40.1 °F /  4.5 °C 29.8in /  1009.9hPa OSO 3.1mph /  5km/h 13mph /  20.9km/h 49% 0in /  0.0mm
00:39 59.5 °F /  15.3 °C 40.3 °F /  4.6 °C 29.8in /  1009.8hPa Oeste 5mph /  8km/h 13mph /  20.9km/h 48.8% 0in /  0.0mm
00:44 60.1 °F /  15.6 °C 40.1 °F /  4.5 °C 29.8in /  1009.8hPa SSE 6.2mph /  10km/h 13mph /  20.9km/h 47.5% 0in /  0.0mm
00:49 59.7 °F /  15.4 °C 39.9 °F /  4.4 °C 29.8in /  1009.8hPa SE 5.7mph /  9.2km/h 13mph /  20.9km/h 47.9% 0in /  0.0mm
00:54 59.5 °F /  15.3 °C 39.7 °F /  4.3 °C 29.8in /  1009.7hPa Sur 5.4mph /  8.7km/h 9mph /  14.5km/h 48% 0in /  0.0mm
00:59 59.4 °F /  15.2 °C 39.7 °F /  4.3 °C 29.8in /  1009.7hPa SSO 4.3mph /  6.9km/h 8.1mph /  13km/h 48.2% 0in /  0.0mm
01:04 59.2 °F /  15.1 °C 39.9 °F /  4.4 °C 29.8in /  1009.8hPa SO 3.6mph /  5.8km/h 8mph /  12.9km/h 49% 0in /  0.0mm
01:09 59.4 °F /  15.2 °C 40.1 °F /  4.5 °C 29.8in /  1009.8hPa SSO 3.9mph /  6.2km/h 7mph /  11.3km/h 49% 0in /  0.0mm
01:14 59.2 °F /  15.1 °C 39.9 °F /  4.4 °C 29.8in /  1009.8hPa Sur 4mph /  6.5km/h 7mph /  11.3km/h 49% 0in /  0.0mm
01:19 59.2 °F /  15.1 °C 39.9 °F /  4.4 °C 29.8in /  1009.8hPa SSO 3.8mph /  6.1km/h 7mph /  11.3km/h 49% 0in /  0.0mm
01:24 59.2 °F /  15.1 °C 39.9 °F /  4.4 °C 29.8in /  1009.7hPa SSO 3.6mph /  5.8km/h 7.4mph /  11.9km/h 49% 0in /  0.0mm
01:29 59.4 °F /  15.2 °C 40.1 °F /  4.5 °C 29.8in /  1009.7hPa SSO 3.6mph /  5.8km/h 9.7mph /  15.6km/h 49% 0in /  0.0mm
01:34 59.4 °F /  15.2 °C 40.3 °F /  4.6 °C 29.8in /  1009.7hPa SSO 3.6mph /  5.8km/h 10.7mph /  17.2km/h 49% 0in /  0.0mm
01:39 59.7 °F /  15.4 °C 40.3 °F /  4.6 °C 29.8in /  1009.4hPa SSO 4.7mph /  7.5km/h 11mph /  17.7km/h 48.5% 0in /  0.0mm
01:44 59.7 °F /  15.4 °C 40.5 °F /  4.7 °C 29.8in /  1009.4hPa SSO 5.4mph /  8.7km/h 12.7mph /  20.4km/h 48.9% 0in /  0.0mm
01:49 59.7 °F /  15.4 °C 40.5 °F /  4.7 °C 29.8in /  1009.4hPa SSO 6.3mph /  10.1km/h 14mph /  22.5km/h 48.8% 0in /  0.0mm
01:54 60.3 °F /  15.7 °C 40.5 °F /  4.7 °C 29.8in /  1009.4hPa SSO 6.9mph /  11.1km/h 25.3mph /  40.7km/h 48% 0in /  0.0mm
01:59 60.8 °F /  16 °C 40.5 °F /  4.7 °C 29.8in /  1009.4hPa SSO 9.8mph /  15.7km/h 25mph /  40.2km/h 47.1% 0in /  0.0mm
02:04 61.2 °F /  16.2 °C 40.3 °F /  4.6 °C 29.8in /  1009.5hPa SSO 11.4mph /  18.4km/h 25mph /  40.2km/h 46.2% 0in /  0.0mm
02:09 61.2 °F /  16.2 °C 40.3 °F /  4.6 °C 29.8in /  1009.5hPa SO 11.9mph /  19.2km/h 24mph /  38.6km/h 46% 0in /  0.0mm
02:14 61.2 °F /  16.2 °C 40.3 °F /  4.6 °C 29.8in /  1009.5hPa SO 12.3mph /  19.8km/h 26.5mph /  42.6km/h 46% 0in /  0.0mm
02:19 61.3 °F /  16.3 °C 40.5 °F /  4.7 °C 29.8in /  1009.5hPa OSO 12.3mph /  19.8km/h 26mph /  41.8km/h 46.2% 0in /  0.0mm
02:24 61.3 °F /  16.3 °C 40.5 °F /  4.7 °C 29.8in /  1009.4hPa Oeste 12.3mph /  19.8km/h 20.7mph /  33.3km/h 46.1% 0in /  0.0mm
02:29 61.2 °F /  16.2 °C 40.6 °F /  4.8 °C 29.8in /  1009.4hPa Oeste 12.3mph /  19.8km/h 21mph /  33.8km/h 46.8% 0in /  0.0mm
02:34 61 °F /  16.1 °C 40.6 °F /  4.8 °C 29.8in /  1009.4hPa Oeste 12.3mph /  19.8km/h 19mph /  30.6km/h 47% 0in /  0.0mm
02:39 60.6 °F /  15.9 °C 40.6 °F /  4.8 °C 29.8in /  1009.4hPa Oeste 10.9mph /  17.6km/h 18.5mph /  29.8km/h 47.5% 0in /  0.0mm
02:44 60.4 °F /  15.8 °C 40.6 °F /  4.8 °C 29.8in /  1009.4hPa OSO 10mph /  16.1km/h 19mph /  30.6km/h 48% 0in /  0.0mm
02:49 60.3 °F /  15.7 °C 40.5 °F /  4.7 °C 29.8in /  1009.6hPa OSO 9.1mph /  14.7km/h 16mph /  25.7km/h 48% 0in /  0.0mm
02:54 59.9 °F /  15.5 °C 40.6 °F /  4.8 °C 29.8in /  1009.6hPa Oeste 8.5mph /  13.7km/h 13.8mph /  22.2km/h 48.8% 0in /  0.0mm
02:59 59.7 °F /  15.4 °C 40.1 °F /  4.5 °C 29.8in /  1009.6hPa Oeste 7.1mph /  11.4km/h 14mph /  22.5km/h 48.1% 0in /  0.0mm
03:04 59.7 °F /  15.4 °C 40.1 °F /  4.5 °C 29.8in /  1009.6hPa OSO 6.2mph /  10km/h 13.8mph /  22.2km/h 48% 0in /  0.0mm
03:09 59.9 °F /  15.5 °C 39.9 °F /  4.4 °C 29.8in /  1009.5hPa OSO 6.3mph /  10.2km/h 14mph /  22.5km/h 47.8% 0in /  0.0mm
03:14 59.7 °F /  15.4 °C 40.1 °F /  4.5 °C 29.8in /  1009.5hPa OSO 6.4mph /  10.3km/h 10mph /  16.1km/h 48% 0in /  0.0mm
03:19 59.7 °F /  15.4 °C 40.1 °F /  4.5 °C 29.8in /  1009.8hPa SSO 5.4mph /  8.7km/h 8.5mph /  13.7km/h 48.1% 0in /  0.0mm
03:24 59.2 °F /  15.1 °C 40.1 °F /  4.5 °C 29.8in /  1009.8hPa SE 4.7mph /  7.6km/h 10.2mph /  16.4km/h 49.1% 0in /  0.0mm
03:29 58.3 °F /  14.6 °C 40.1 °F /  4.5 °C 29.8in /  1009.8hPa SSE 4mph /  6.5km/h 10.4mph /  16.7km/h 50.6% 0in /  0.0mm
03:34 57.2 °F /  14 °C 39.9 °F /  4.4 °C 29.8in /  1009.9hPa SSE 3.6mph /  5.8km/h 7mph /  11.3km/h 52.4% 0in /  0.0mm
03:39 56.7 °F /  13.7 °C 39.9 °F /  4.4 °C 29.8in /  1009.9hPa SSE 4.2mph /  6.8km/h 8.1mph /  13km/h 53.5% 0in /  0.0mm
03:44 56.1 °F /  13.4 °C 39.7 °F /  4.3 °C 29.8in /  1009.9hPa SSE 4.7mph /  7.6km/h 8mph /  12.9km/h 54% 0in /  0.0mm
03:49 56.1 °F /  13.4 °C 39.7 °F /  4.3 °C 29.8in /  1009.9hPa SSE 3.8mph /  6.1km/h 5.8mph /  9.3km/h 54% 0in /  0.0mm
03:54 56.1 °F /  13.4 °C 39.9 °F /  4.4 °C 29.8in /  1009.9hPa SSE 3.1mph /  5km/h 6mph /  9.7km/h 54.4% 0in /  0.0mm
03:59 55.9 °F /  13.3 °C 40.1 °F /  4.5 °C 29.8in /  1009.9hPa SE 3.1mph /  5km/h 5.9mph /  9.5km/h 55% 0in /  0.0mm
04:04 55.8 °F /  13.2 °C 39.9 °F /  4.4 °C 29.8in /  1009.9hPa SE 3.1mph /  5km/h 6.9mph /  11.1km/h 55% 0in /  0.0mm
04:09 55.8 °F /  13.2 °C 39.7 °F /  4.3 °C 29.8in /  1009.9hPa SE 3mph /  4.8km/h 7mph /  11.3km/h 55% 0in /  0.0mm
04:14 55.8 °F /  13.2 °C 39.6 °F /  4.2 °C 29.8in /  1009.9hPa Sur 2.9mph /  4.7km/h 6.9mph /  11.1km/h 54.4% 0in /  0.0mm
04:19 55.9 °F /  13.3 °C 39.6 °F /  4.2 °C 29.8in /  1010.0hPa Sur 2.9mph /  4.7km/h 7mph /  11.3km/h 54% 0in /  0.0mm
04:24 56.1 °F /  13.4 °C 39.6 °F /  4.2 °C 29.8in /  1010.0hPa SSO 2.9mph /  4.7km/h 6.9mph /  11.1km/h 53.7% 0in /  0.0mm
04:29 56.7 °F /  13.7 °C 39.2 °F /  4 °C 29.8in /  1010.0hPa Oeste 3.5mph /  5.7km/h 15.9mph /  25.6km/h 52.1% 0in /  0.0mm
04:34 57.7 °F /  14.3 °C 38.8 °F /  3.8 °C 29.8in /  1010.0hPa Oeste 4mph /  6.5km/h 16.1mph /  25.9km/h 49.4% 0in /  0.0mm
04:39 58.6 °F /  14.8 °C 38.7 °F /  3.7 °C 29.8in /  1009.8hPa Oeste 6.7mph /  10.8km/h 16.1mph /  25.9km/h 47.5% 0in /  0.0mm
04:44 59 °F /  15 °C 38.8 °F /  3.8 °C 29.8in /  1009.8hPa Oeste 8.7mph /  14km/h 16mph /  25.7km/h 46.9% 0in /  0.0mm
04:49 59.2 °F /  15.1 °C 38.5 °F /  3.6 °C 29.8in /  1009.8hPa Oeste 8.4mph /  13.5km/h 15mph /  24.1km/h 46% 0in /  0.0mm
04:54 59.2 °F /  15.1 °C 38.3 °F /  3.5 °C 29.8in /  1009.6hPa Oeste 8.1mph /  13km/h 14mph /  22.5km/h 46% 0in /  0.0mm
04:59 58.8 °F /  14.9 °C 38.3 °F /  3.5 °C 29.8in /  1009.6hPa Oeste 7.6mph /  12.3km/h 13mph /  20.9km/h 46.5% 0in /  0.0mm
05:04 58.6 °F /  14.8 °C 38.5 °F /  3.6 °C 29.8in /  1009.6hPa Oeste 7.4mph /  11.9km/h 11.8mph /  19km/h 47% 0in /  0.0mm
05:09 58.6 °F /  14.8 °C 38.3 °F /  3.5 °C 29.8in /  1009.6hPa Oeste 6.5mph /  10.5km/h 15mph /  24.1km/h 46.6% 0in /  0.0mm
05:14 58.8 °F /  14.9 °C 38.1 °F /  3.4 °C 29.8in /  1009.6hPa ONO 5.9mph /  9.5km/h 15mph /  24.1km/h 46% 0in /  0.0mm
05:19 58.8 °F /  14.9 °C 38.1 °F /  3.4 °C 29.8in /  1009.6hPa ONO 6.5mph /  10.4km/h 16.1mph /  25.9km/h 46% 0in /  0.0mm
05:24 59 °F /  15 °C 38.3 °F /  3.5 °C 29.8in /  1009.5hPa ONO 6.9mph /  11.1km/h 20.7mph /  33.3km/h 46% 0in /  0.0mm
05:29 59.2 °F /  15.1 °C 38.3 °F /  3.5 °C 29.8in /  1009.5hPa Oeste 8.6mph /  13.9km/h 21mph /  33.8km/h 46% 0in /  0.0mm
05:34 58.8 °F /  14.9 °C 38.1 °F /  3.4 °C 29.8in /  1009.6hPa OSO 10mph /  16.1km/h 17mph /  27.4km/h 46% 0in /  0.0mm
05:39 58.6 °F /  14.8 °C 38.1 °F /  3.4 °C 29.8in /  1009.6hPa Sur 7.2mph /  11.6km/h 10mph /  16.1km/h 46.2% 0in /  0.0mm
05:44 57.9 °F /  14.4 °C 38.3 °F /  3.5 °C 29.8in /  1009.6hPa SSE 5.2mph /  8.4km/h 10.4mph /  16.7km/h 47.7% 0in /  0.0mm
05:49 56.7 °F /  13.7 °C 38.3 °F /  3.5 °C 29.8in /  1009.7hPa SSE 4.7mph /  7.5km/h 10mph /  16.1km/h 50% 0in /  0.0mm
05:54 55.8 °F /  13.2 °C 38.3 °F /  3.5 °C 29.8in /  1009.7hPa SSE 4.3mph /  6.9km/h 8.1mph /  13km/h 51.7% 0in /  0.0mm
05:59 55.2 °F /  12.9 °C 38.3 °F /  3.5 °C 29.8in /  1009.7hPa SSE 4.3mph /  6.9km/h 8.1mph /  13km/h 52.6% 0in /  0.0mm
06:04 55 °F /  12.8 °C 38.1 °F /  3.4 °C 29.8in /  1009.7hPa SSE 4.3mph /  6.9km/h 10.7mph /  17.2km/h 53% 0in /  0.0mm
06:09 55 °F /  12.8 °C 38.1 °F /  3.4 °C 29.8in /  1009.7hPa Sur 4.9mph /  7.9km/h 12.7mph /  20.4km/h 53% 0in /  0.0mm
06:14 55 °F /  12.8 °C 38.1 °F /  3.4 °C 29.8in /  1009.7hPa Sur 5.4mph /  8.7km/h 13mph /  20.9km/h 53% 0in /  0.0mm
06:19 55 °F /  12.8 °C 38.1 °F /  3.4 °C 29.8in /  1009.7hPa SSE 6mph /  9.6km/h 12mph /  19.3km/h 53% 0in /  0.0mm
06:24 55 °F /  12.8 °C 38.1 °F /  3.4 °C 29.8in /  1009.7hPa Sur 6.4mph /  10.3km/h 9mph /  14.5km/h 53% 0in /  0.0mm
06:29 55 °F /  12.8 °C 38.1 °F /  3.4 °C 29.8in /  1009.7hPa Sur 5.7mph /  9.2km/h 8mph /  12.9km/h 53% 0in /  0.0mm
06:34 55 °F /  12.8 °C 38.1 °F /  3.4 °C 29.8in /  1009.7hPa SSO 5.2mph /  8.4km/h 7mph /  11.3km/h 53% 0in /  0.0mm
06:39 55 °F /  12.8 °C 38.1 °F /  3.4 °C 29.8in /  1009.7hPa SSO 4.5mph /  7.3km/h 5.9mph /  9.5km/h 53% 0in /  0.0mm
06:44 55 °F /  12.8 °C 38.1 °F /  3.4 °C 29.8in /  1009.7hPa SO 4mph /  6.5km/h 6mph /  9.7km/h 53% 0in /  0.0mm
06:49 54.9 °F /  12.7 °C 37.9 °F /  3.3 °C 29.8in /  1009.7hPa SO 4mph /  6.5km/h 6mph /  9.7km/h 53% 0in /  0.0mm
06:54 55 °F /  12.8 °C 38.1 °F /  3.4 °C 29.8in /  1009.5hPa SSO 4mph /  6.5km/h 6mph /  9.7km/h 53% 0in /  0.0mm
06:59 55 °F /  12.8 °C 38.1 °F /  3.4 °C 29.8in /  1009.5hPa Sur 3.8mph /  6.1km/h 6mph /  9.7km/h 53% 0in /  0.0mm
07:04 54.9 °F /  12.7 °C 38.1 °F /  3.4 °C 29.8in /  1009.5hPa SSE 3.6mph /  5.8km/h 7.4mph /  11.9km/h 53.4% 0in /  0.0mm
07:09 54.3 °F /  12.4 °C 38.1 °F /  3.4 °C 29.8in /  1009.5hPa SSE 3.9mph /  6.2km/h 7mph /  11.3km/h 54.2% 0in /  0.0mm
07:14 53.8 °F /  12.1 °C 38.1 °F /  3.4 °C 29.8in /  1009.5hPa SE 4mph /  6.5km/h 8.1mph /  13km/h 55.3% 0in /  0.0mm
07:19 53.1 °F /  11.7 °C 37.9 °F /  3.3 °C 29.8in /  1009.6hPa SSE 4.7mph /  7.6km/h 8.5mph /  13.7km/h 56.3% 0in /  0.0mm
07:24 52.7 °F /  11.5 °C 37.9 °F /  3.3 °C 29.8in /  1009.6hPa Sur 5.2mph /  8.4km/h 9mph /  14.5km/h 57% 0in /  0.0mm
07:29 52.7 °F /  11.5 °C 37.9 °F /  3.3 °C 29.8in /  1009.6hPa Sur 5.6mph /  9km/h 9mph /  14.5km/h 57% 0in /  0.0mm
07:34 52.9 °F /  11.6 °C 38.1 °F /  3.4 °C 29.8in /  1009.9hPa Sur 5.9mph /  9.5km/h 9mph /  14.5km/h 57% 0in /  0.0mm
07:39 52.9 °F /  11.6 °C 38.1 °F /  3.4 °C 29.8in /  1009.9hPa SSE 4.8mph /  7.8km/h 7mph /  11.3km/h 57% 0in /  0.0mm
07:44 53.1 °F /  11.7 °C 38.1 °F /  3.4 °C 29.8in /  1009.9hPa Sur 4mph /  6.5km/h 7mph /  11.3km/h 56.8% 0in /  0.0mm
07:49 53.2 °F /  11.8 °C 37.9 °F /  3.3 °C 29.8in /  1010.2hPa Sur 3.8mph /  6.1km/h 6mph /  9.7km/h 56% 0in /  0.0mm
07:54 53.2 °F /  11.8 °C 37.9 °F /  3.3 °C 29.8in /  1010.2hPa Sur 3.6mph /  5.8km/h 6.2mph /  10km/h 56% 0in /  0.0mm
07:59 53.4 °F /  11.9 °C 37.9 °F /  3.3 °C 29.8in /  1010.2hPa Sur 3.3mph /  5.3km/h 6mph /  9.7km/h 55.4% 0in /  0.0mm
08:04 53.8 °F /  12.1 °C 37.9 °F /  3.3 °C 29.8in /  1010.3hPa Sur 3.1mph /  5km/h 5mph /  8km/h 55% 0in /  0.0mm
08:09 53.8 °F /  12.1 °C 37.9 °F /  3.3 °C 29.8in /  1010.3hPa SSO 3.1mph /  5km/h 5.2mph /  8.4km/h 55% 0in /  0.0mm
08:14 54 °F /  12.2 °C 38.1 °F /  3.4 °C 29.8in /  1010.3hPa SO 3.1mph /  5km/h 5.8mph /  9.3km/h 55% 0in /  0.0mm
08:19 54 °F /  12.2 °C 38.1 °F /  3.4 °C 29.8in /  1010.6hPa SO 3.4mph /  5.4km/h 6mph /  9.7km/h 55% 0in /  0.0mm
08:24 54 °F /  12.2 °C 38.1 °F /  3.4 °C 29.8in /  1010.6hPa SO 3.6mph /  5.8km/h 6.9mph /  11.1km/h 55% 0in /  0.0mm
08:29 54 °F /  12.2 °C 38.1 °F /  3.4 °C 29.8in /  1010.6hPa OSO 3.6mph /  5.8km/h 7mph /  11.3km/h 55% 0in /  0.0mm
08:34 54 °F /  12.2 °C 38.1 °F /  3.4 °C 29.8in /  1010.7hPa OSO 3.6mph /  5.8km/h 7mph /  11.3km/h 55% 0in /  0.0mm
08:39 53.8 °F /  12.1 °C 38.1 °F /  3.4 °C 29.8in /  1010.7hPa OSO 3.3mph /  5.3km/h 5.8mph /  9.3km/h 55.5% 0in /  0.0mm
08:44 53.4 °F /  11.9 °C 38.1 °F /  3.4 °C 29.8in /  1010.7hPa Oeste 3.1mph /  5km/h 6mph /  9.7km/h 56% 0in /  0.0mm
08:49 53.4 °F /  11.9 °C 38.5 °F /  3.6 °C 29.8in /  1010.7hPa Oeste 2.7mph /  4.3km/h 5.8mph /  9.3km/h 56.7% 0in /  0.0mm
08:54 53.2 °F /  11.8 °C 38.5 °F /  3.6 °C 29.8in /  1010.7hPa OSO 2.4mph /  3.9km/h 6mph /  9.7km/h 57% 0in /  0.0mm
08:59 53.2 °F /  11.8 °C 38.5 °F /  3.6 °C 29.8in /  1010.7hPa SO 3.2mph /  5.1km/h 6mph /  9.7km/h 57% 0in /  0.0mm
09:04 53.6 °F /  12 °C 38.3 °F /  3.5 °C 29.9in /  1010.9hPa SO 3.6mph /  5.8km/h 5.2mph /  8.4km/h 56.1% 0in /  0.0mm
09:09 53.8 °F /  12.1 °C 38.7 °F /  3.7 °C 29.9in /  1010.9hPa OSO 3.3mph /  5.3km/h 5.2mph /  8.4km/h 56.4% 0in /  0.0mm
09:14 53.4 °F /  11.9 °C 38.8 °F /  3.8 °C 29.9in /  1010.9hPa SSE 3.1mph /  5km/h 8.1mph /  13km/h 57.4% 0in /  0.0mm
09:19 52.7 °F /  11.5 °C 38.8 °F /  3.8 °C 29.9in /  1011.0hPa SSE 3.6mph /  5.8km/h 8mph /  12.9km/h 59% 0in /  0.0mm
09:24 52.2 °F /  11.2 °C 38.7 °F /  3.7 °C 29.9in /  1011.0hPa Sur 4mph /  6.5km/h 8.5mph /  13.7km/h 60.3% 0in /  0.0mm
09:29 51.8 °F /  11 °C 38.7 °F /  3.7 °C 29.9in /  1011.0hPa Sur 4.7mph /  7.6km/h 9mph /  14.5km/h 61% 0in /  0.0mm
09:34 51.6 °F /  10.9 °C 38.7 °F /  3.7 °C 29.9in /  1011.1hPa Sur 5.2mph /  8.4km/h 7.4mph /  11.9km/h 61% 0in /  0.0mm
09:39 51.6 °F /  10.9 °C 38.7 °F /  3.7 °C 29.9in /  1011.1hPa Sur 4.9mph /  7.9km/h 9.2mph /  14.8km/h 61% 0in /  0.0mm
09:44 51.8 °F /  11 °C 38.5 °F /  3.6 °C 29.9in /  1011.1hPa SSO 4.7mph /  7.6km/h 9mph /  14.5km/h 60.3% 0in /  0.0mm
09:49 52.2 °F /  11.2 °C 38.7 °F /  3.7 °C 29.9in /  1011.1hPa SSO 5mph /  8km/h 8mph /  12.9km/h 60% 0in /  0.0mm
09:54 52.2 °F /  11.2 °C 38.8 °F /  3.8 °C 29.9in /  1011.1hPa SO 5.2mph /  8.4km/h 7mph /  11.3km/h 60% 0in /  0.0mm
09:59 52.3 °F /  11.3 °C 38.8 °F /  3.8 °C 29.9in /  1011.1hPa OSO 3.9mph /  6.3km/h 7mph /  11.3km/h 60% 0in /  0.0mm
10:04 52.5 °F /  11.4 °C 39 °F /  3.9 °C 29.9in /  1011.4hPa OSO 3.1mph /  5km/h 6mph /  9.7km/h 60% 0in /  0.0mm
10:09 52.9 °F /  11.6 °C 38.8 °F /  3.8 °C 29.9in /  1011.4hPa OSO 3.4mph /  5.4km/h 6mph /  9.7km/h 58.8% 0in /  0.0mm
10:14 53.2 °F /  11.8 °C 38.8 °F /  3.8 °C 29.9in /  1011.4hPa OSO 3.6mph /  5.8km/h 6mph /  9.7km/h 58% 0in /  0.0mm
10:19 53.8 °F /  12.1 °C 39.2 °F /  4 °C 29.9in /  1011.4hPa SO 3.9mph /  6.2km/h 6.4mph /  10.3km/h 57.5% 0in /  0.0mm
10:24 54.7 °F /  12.6 °C 38.8 °F /  3.8 °C 29.9in /  1011.4hPa SSO 4mph /  6.5km/h 7.4mph /  11.9km/h 55.4% 0in /  0.0mm
10:29 55.6 °F /  13.1 °C 38.8 °F /  3.8 °C 29.9in /  1011.4hPa SSO 4.2mph /  6.7km/h 7mph /  11.3km/h 53.4% 0in /  0.0mm
10:34 56.1 °F /  13.4 °C 38.8 °F /  3.8 °C 29.9in /  1011.7hPa SO 4.3mph /  6.9km/h 7mph /  11.3km/h 52.1% 0in /  0.0mm
10:39 56.7 °F /  13.7 °C 39 °F /  3.9 °C 29.9in /  1011.7hPa SO 4.3mph /  6.9km/h 7mph /  11.3km/h 51.7% 0in /  0.0mm
10:44 57.2 °F /  14 °C 39.2 °F /  4 °C 29.9in /  1011.7hPa SO 4.3mph /  6.9km/h 6.9mph /  11.1km/h 51% 0in /  0.0mm
10:49 57.6 °F /  14.2 °C 39.2 °F /  4 °C 29.9in /  1011.7hPa SSO 3.9mph /  6.3km/h 7mph /  11.3km/h 50.3% 0in /  0.0mm
10:54 57.9 °F /  14.4 °C 39.2 °F /  4 °C 29.9in /  1011.7hPa SO 3.6mph /  5.8km/h 8.7mph /  14km/h 49.5% 0in /  0.0mm
10:59 57.9 °F /  14.4 °C 39 °F /  3.9 °C 29.9in /  1011.7hPa SO 4.6mph /  7.4km/h 9.2mph /  14.8km/h 49.2% 0in /  0.0mm
11:04 57.9 °F /  14.4 °C 39.2 °F /  4 °C 29.9in /  1011.7hPa SO 5.2mph /  8.4km/h 9.2mph /  14.8km/h 49.6% 0in /  0.0mm
11:09 58.3 °F /  14.6 °C 39.6 °F /  4.2 °C 29.9in /  1011.6hPa SSO 4.9mph /  7.9km/h 9mph /  14.5km/h 49.7% 0in /  0.0mm
11:14 58.6 °F /  14.8 °C 39.6 °F /  4.2 °C 29.9in /  1011.6hPa Oeste 4.7mph /  7.6km/h 8mph /  12.9km/h 49.1% 0in /  0.0mm
11:19 59 °F /  15 °C 39.6 °F /  4.2 °C 29.9in /  1011.9hPa ONO 3.4mph /  5.4km/h 9.2mph /  14.8km/h 48.4% 0in /  0.0mm
11:24 59.4 °F /  15.2 °C 39.2 °F /  4 °C 29.9in /  1011.9hPa ONO 2.4mph /  3.9km/h 10.4mph /  16.7km/h 47% 0in /  0.0mm
11:29 59.7 °F /  15.4 °C 38.8 °F /  3.8 °C 29.9in /  1011.9hPa ONO 4.2mph /  6.7km/h 12.5mph /  20.1km/h 45.8% 0in /  0.0mm
11:34 59.9 °F /  15.5 °C 38.5 °F /  3.6 °C 29.9in /  1011.9hPa ONO 5.4mph /  8.7km/h 13mph /  20.9km/h 44.8% 0in /  0.0mm
11:39 60.1 °F /  15.6 °C 38.1 °F /  3.4 °C 29.9in /  1011.7hPa ONO 6.6mph /  10.7km/h 13mph /  20.9km/h 44% 0in /  0.0mm
11:44 60.3 °F /  15.7 °C 37.8 °F /  3.2 °C 29.9in /  1011.7hPa ONO 7.6mph /  12.2km/h 15mph /  24.1km/h 43.2% 0in /  0.0mm
11:49 60.4 °F /  15.8 °C 37.8 °F /  3.2 °C 29.9in /  1011.8hPa NO 7.6mph /  12.2km/h 15mph /  24.1km/h 42.9% 0in /  0.0mm
11:54 61 °F /  16.1 °C 37.6 °F /  3.1 °C 29.9in /  1011.8hPa NO 7.6mph /  12.2km/h 16.3mph /  26.2km/h 42% 0in /  0.0mm
11:59 61.2 °F /  16.2 °C 37.8 °F /  3.2 °C 29.9in /  1011.8hPa NO 7.9mph /  12.7km/h 16.1mph /  25.9km/h 42% 0in /  0.0mm
12:04 61.2 °F /  16.2 °C 37.8 °F /  3.2 °C 29.9in /  1011.9hPa ONO 8.1mph /  13km/h 16.1mph /  25.9km/h 41.8% 0in /  0.0mm
12:09 61.2 °F /  16.2 °C 37.2 °F /  2.9 °C 29.9in /  1011.9hPa ONO 8.1mph /  13km/h 16mph /  25.7km/h 40.8% 0in /  0.0mm
12:14 61.2 °F /  16.2 °C 37.2 °F /  2.9 °C 29.9in /  1011.9hPa ONO 8.1mph /  13km/h 15mph /  24.1km/h 41% 0in /  0.0mm
12:19 61.3 °F /  16.3 °C 37.4 °F /  3 °C 29.9in /  1011.9hPa NO 7.8mph /  12.6km/h 13mph /  20.9km/h 41% 0in /  0.0mm
12:24 61.5 °F /  16.4 °C 37.6 °F /  3.1 °C 29.9in /  1011.8hPa ONO 7.6mph /  12.2km/h 15.6mph /  25.1km/h 41% 0in /  0.0mm
12:29 61.5 °F /  16.4 °C 37.2 °F /  2.9 °C 29.9in /  1011.8hPa NO 7.5mph /  12.1km/h 16.1mph /  25.9km/h 40.3% 0in /  0.0mm
12:34 61.5 °F /  16.4 °C 37 °F /  2.8 °C 29.9in /  1011.8hPa ONO 7.4mph /  11.9km/h 14mph /  22.5km/h 40% 0in /  0.0mm
12:39 61.3 °F /  16.3 °C 36.9 °F /  2.7 °C 29.9in /  1011.6hPa Oeste 7.8mph /  12.6km/h 14mph /  22.5km/h 40% 0in /  0.0mm
12:44 61.5 °F /  16.4 °C 37 °F /  2.8 °C 29.9in /  1011.6hPa Oeste 8.1mph /  13km/h 14mph /  22.5km/h 40% 0in /  0.0mm
12:49 61.3 °F /  16.3 °C 36.7 °F /  2.6 °C 29.9in /  1011.6hPa ONO 7.7mph /  12.4km/h 14mph /  22.5km/h 39.6% 0in /  0.0mm
12:54 61.3 °F /  16.3 °C 36.9 °F /  2.7 °C 29.9in /  1011.4hPa ONO 7.4mph /  11.9km/h 14mph /  22.5km/h 40% 0in /  0.0mm
12:59 61.5 °F /  16.4 °C 36.9 °F /  2.7 °C 29.9in /  1011.4hPa ONO 7.4mph /  11.9km/h 11mph /  17.7km/h 39.8% 0in /  0.0mm
13:04 61.9 °F /  16.6 °C 36.7 °F /  2.6 °C 29.9in /  1011.4hPa Oeste 7.4mph /  11.9km/h 11mph /  17.7km/h 39.2% 0in /  0.0mm
13:09 61.9 °F /  16.6 °C 36.5 °F /  2.5 °C 29.9in /  1011.3hPa Oeste 6.3mph /  10.1km/h 10mph /  16.1km/h 39% 0in /  0.0mm
13:14 61.7 °F /  16.5 °C 36.5 °F /  2.5 °C 29.9in /  1011.3hPa OSO 5.4mph /  8.7km/h 9.7mph /  15.6km/h 39% 0in /  0.0mm
13:19 61.7 °F /  16.5 °C 36.3 °F /  2.4 °C 29.9in /  1011.3hPa SO 5.3mph /  8.5km/h 10mph /  16.1km/h 38.7% 0in /  0.0mm
13:24 61.5 °F /  16.4 °C 36.3 °F /  2.4 °C 29.9in /  1011.1hPa SO 5.2mph /  8.4km/h 11.4mph /  18.3km/h 39% 0in /  0.0mm
13:29 61.5 °F /  16.4 °C 35.8 °F /  2.1 °C 29.9in /  1011.1hPa SO 5.3mph /  8.5km/h 12mph /  19.3km/h 38% 0in /  0.0mm
13:34 61.7 °F /  16.5 °C 36 °F /  2.2 °C 29.9in /  1011.1hPa SO 5.4mph /  8.7km/h 12mph /  19.3km/h 38.3% 0in /  0.0mm
13:39 61.9 °F /  16.6 °C 36 °F /  2.2 °C 29.9in /  1010.8hPa Oeste 5.4mph /  8.7km/h 11.4mph /  18.3km/h 38% 0in /  0.0mm
13:44 61.9 °F /  16.6 °C 36 °F /  2.2 °C 29.9in /  1010.8hPa Oeste 5.4mph /  8.7km/h 12.7mph /  20.4km/h 38% 0in /  0.0mm
13:49 61.9 °F /  16.6 °C 36 °F /  2.2 °C 29.9in /  1010.8hPa OSO 6.3mph /  10.1km/h 13mph /  20.9km/h 38% 0in /  0.0mm
13:54 62.1 °F /  16.7 °C 36.5 °F /  2.5 °C 29.8in /  1010.5hPa SSO 6.9mph /  11.1km/h 12mph /  19.3km/h 38.4% 0in /  0.0mm
13:59 62.2 °F /  16.8 °C 36.3 °F /  2.4 °C 29.8in /  1010.5hPa SSO 6.3mph /  10.1km/h 10.7mph /  17.2km/h 38% 0in /  0.0mm
14:04 62.2 °F /  16.8 °C 36.3 °F /  2.4 °C 29.8in /  1010.5hPa Sur 5.9mph /  9.5km/h 11mph /  17.7km/h 38% 0in /  0.0mm
14:09 62.1 °F /  16.7 °C 36.1 °F /  2.3 °C 29.8in /  1010.2hPa Sur 6.5mph /  10.4km/h 10mph /  16.1km/h 38% 0in /  0.0mm
14:14 62.2 °F /  16.8 °C 36.3 °F /  2.4 °C 29.8in /  1010.2hPa SSO 6.9mph /  11.1km/h 10mph /  16.1km/h 38.1% 0in /  0.0mm
14:19 62.4 °F /  16.9 °C 36.1 °F /  2.3 °C 29.8in /  1010.2hPa SSO 6.1mph /  9.8km/h 10mph /  16.1km/h 37.6% 0in /  0.0mm
14:24 62.4 °F /  16.9 °C 36.5 °F /  2.5 °C 29.8in /  1010.0hPa SSO 5.4mph /  8.7km/h 9.7mph /  15.6km/h 38% 0in /  0.0mm
14:29 62.6 °F /  17 °C 36.5 °F /  2.5 °C 29.8in /  1010.0hPa Sur 5.4mph /  8.7km/h 10mph /  16.1km/h 37.8% 0in /  0.0mm
14:34 63 °F /  17.2 °C 36.5 °F /  2.5 °C 29.8in /  1010.0hPa Sur 5.4mph /  8.7km/h 11.5mph /  18.5km/h 37.5% 0in /  0.0mm
14:39 62.8 °F /  17.1 °C 36.1 °F /  2.3 °C 29.8in /  1009.6hPa SSE 6mph /  9.6km/h 12mph /  19.3km/h 37% 0in /  0.0mm
14:44 62.8 °F /  17.1 °C 35.8 °F /  2.1 °C 29.8in /  1009.6hPa SSE 6.4mph /  10.3km/h 12mph /  19.3km/h 36.4% 0in /  0.0mm
14:49 63.1 °F /  17.3 °C 36 °F /  2.2 °C 29.8in /  1009.6hPa Sur 5.5mph /  8.8km/h 8mph /  12.9km/h 36.5% 0in /  0.0mm
14:54 63.3 °F /  17.4 °C 35.6 °F /  2 °C 29.8in /  1009.3hPa Oeste 4.7mph /  7.6km/h 11.5mph /  18.5km/h 35.6% 0in /  0.0mm
14:59 63.1 °F /  17.3 °C 35.2 °F /  1.8 °C 29.8in /  1009.3hPa ONO 4.7mph /  7.6km/h 12mph /  19.3km/h 35.3% 0in /  0.0mm
15:04 63 °F /  17.2 °C 33.4 °F /  0.8 °C 29.8in /  1009.3hPa ONO 4.7mph /  7.6km/h 15mph /  24.1km/h 33% 0in /  0.0mm
15:09 63.1 °F /  17.3 °C 32.4 °F /  0.2 °C 29.8in /  1009.1hPa Oeste 5.7mph /  9.1km/h 15mph /  24.1km/h 31.4% 0in /  0.0mm
15:14 63.5 °F /  17.5 °C 32.2 °F /  0.1 °C 29.8in /  1009.1hPa ONO 6.4mph /  10.3km/h 13mph /  20.9km/h 30.7% 0in /  0.0mm
15:19 63.5 °F /  17.5 °C 31.8 °F /  -0.1 °C 29.8in /  1009.1hPa NO 6.4mph /  10.3km/h 13mph /  20.9km/h 30.5% 0in /  0.0mm
15:24 63.7 °F /  17.6 °C 32 °F /  0 °C 29.8in /  1009.1hPa ONO 6.4mph /  10.3km/h 16.3mph /  26.2km/h 30.4% 0in /  0.0mm
15:29 63.7 °F /  17.6 °C 32 °F /  0 °C 29.8in /  1009.1hPa ONO 7.1mph /  11.4km/h 16mph /  25.7km/h 30.3% 0in /  0.0mm
15:34 63.7 °F /  17.6 °C 31.6 °F /  -0.2 °C 29.8in /  1009.1hPa Oeste 7.6mph /  12.2km/h 14mph /  22.5km/h 30% 0in /  0.0mm
15:39 63.7 °F /  17.6 °C 32.2 °F /  0.1 °C 29.8in /  1008.8hPa ONO 7.2mph /  11.6km/h 14mph /  22.5km/h 30.6% 0in /  0.0mm
15:44 63.5 °F /  17.5 °C 32.2 °F /  0.1 °C 29.8in /  1008.8hPa ONO 6.9mph /  11.1km/h 14mph /  22.5km/h 30.9% 0in /  0.0mm
15:49 63.7 °F /  17.6 °C 32.4 °F /  0.2 °C 29.8in /  1008.8hPa ONO 6.5mph /  10.5km/h 12.3mph /  19.8km/h 31% 0in /  0.0mm
15:54 63.7 °F /  17.6 °C 32.5 °F /  0.3 °C 29.8in /  1008.8hPa ONO 6.2mph /  10km/h 13.8mph /  22.2km/h 31% 0in /  0.0mm
15:59 63.9 °F /  17.7 °C 32.5 °F /  0.3 °C 29.8in /  1008.8hPa ONO 6.3mph /  10.2km/h 14mph /  22.5km/h 31% 0in /  0.0mm
16:04 63.9 °F /  17.7 °C 32.5 °F /  0.3 °C 29.8in /  1008.8hPa ONO 6.4mph /  10.3km/h 11.5mph /  18.5km/h 31% 0in /  0.0mm
16:09 63.9 °F /  17.7 °C 32.5 °F /  0.3 °C 29.8in /  1008.7hPa Oeste 6.4mph /  10.3km/h 12mph /  19.3km/h 31% 0in /  0.0mm
16:14 63.7 °F /  17.6 °C 32.5 °F /  0.3 °C 29.8in /  1008.7hPa ONO 6.4mph /  10.3km/h 12.7mph /  20.4km/h 31.1% 0in /  0.0mm
16:19 63.7 °F /  17.6 °C 32.5 °F /  0.3 °C 29.8in /  1008.7hPa ONO 6.7mph /  10.8km/h 17.5mph /  28.2km/h 31% 0in /  0.0mm
16:24 63.5 °F /  17.5 °C 32.5 °F /  0.3 °C 29.8in /  1008.6hPa ONO 6.9mph /  11.1km/h 17mph /  27.4km/h 31.2% 0in /  0.0mm
16:29 63.3 °F /  17.4 °C 32.7 °F /  0.4 °C 29.8in /  1008.6hPa ONO 7.2mph /  11.6km/h 12mph /  19.3km/h 31.7% 0in /  0.0mm
16:34 63.3 °F /  17.4 °C 32.9 °F /  0.5 °C 29.8in /  1008.6hPa NO 7.4mph /  11.9km/h 12.5mph /  20.1km/h 32% 0in /  0.0mm
16:39 63.1 °F /  17.3 °C 32.9 °F /  0.5 °C 29.8in /  1008.6hPa ONO 6.7mph /  10.8km/h 13mph /  20.9km/h 32% 0in /  0.0mm
16:44 63.1 °F /  17.3 °C 32.7 °F /  0.4 °C 29.8in /  1008.6hPa ONO 6.2mph /  10km/h 13mph /  20.9km/h 32% 0in /  0.0mm
16:49 63 °F /  17.2 °C 33.3 °F /  0.7 °C 29.8in /  1008.6hPa ONO 6.6mph /  10.6km/h 12.7mph /  20.4km/h 32.8% 0in /  0.0mm
16:54 63 °F /  17.2 °C 33.3 °F /  0.7 °C 29.8in /  1008.6hPa ONO 6.9mph /  11.1km/h 13mph /  20.9km/h 32.9% 0in /  0.0mm
16:59 63 °F /  17.2 °C 33.1 °F /  0.6 °C 29.8in /  1008.6hPa ONO 6.3mph /  10.1km/h 11.8mph /  19km/h 32.7% 0in /  0.0mm
17:04 62.8 °F /  17.1 °C 33.3 °F /  0.7 °C 29.8in /  1008.6hPa ONO 5.9mph /  9.5km/h 12mph /  19.3km/h 33% 0in /  0.0mm
17:09 62.6 °F /  17 °C 33.1 °F /  0.6 °C 29.8in /  1008.6hPa ONO 5.9mph /  9.5km/h 12mph /  19.3km/h 33% 0in /  0.0mm
17:14 62.4 °F /  16.9 °C 32.9 °F /  0.5 °C 29.8in /  1008.6hPa ONO 5.9mph /  9.5km/h 12mph /  19.3km/h 33% 0in /  0.0mm
17:19 62.2 °F /  16.8 °C 32.9 °F /  0.5 °C 29.8in /  1008.6hPa ONO 6.5mph /  10.4km/h 12.7mph /  20.4km/h 33% 0in /  0.0mm
17:24 62.2 °F /  16.8 °C 32.7 °F /  0.4 °C 29.8in /  1008.6hPa NO 6.9mph /  11.1km/h 13mph /  20.9km/h 33% 0in /  0.0mm
17:29 62.2 °F /  16.8 °C 33.1 °F /  0.6 °C 29.8in /  1008.6hPa ONO 6.6mph /  10.7km/h 11.5mph /  18.5km/h 33.3% 0in /  0.0mm
17:34 62.1 °F /  16.7 °C 33.3 °F /  0.7 °C 29.8in /  1008.7hPa ONO 6.4mph /  10.3km/h 12mph /  19.3km/h 33.8% 0in /  0.0mm
17:39 62.1 °F /  16.7 °C 33.3 °F /  0.7 °C 29.8in /  1008.7hPa ONO 7.1mph /  11.4km/h 12.7mph /  20.4km/h 34% 0in /  0.0mm
17:44 61.9 °F /  16.6 °C 33.1 °F /  0.6 °C 29.8in /  1008.7hPa NO 7.6mph /  12.2km/h 13mph /  20.9km/h 34% 0in /  0.0mm
17:49 61.5 °F /  16.4 °C 33.4 °F /  0.8 °C 29.8in /  1008.7hPa ONO 7mph /  11.2km/h 11.8mph /  19km/h 34.6% 0in /  0.0mm
17:54 61.3 °F /  16.3 °C 33.4 °F /  0.8 °C 29.8in /  1008.6hPa ONO 6.4mph /  10.3km/h 12mph /  19.3km/h 35% 0in /  0.0mm
17:59 61.2 °F /  16.2 °C 33.3 °F /  0.7 °C 29.8in /  1008.6hPa ONO 7mph /  11.3km/h 12mph /  19.3km/h 35% 0in /  0.0mm
18:04 61.2 °F /  16.2 °C 33.3 °F /  0.7 °C 29.8in /  1008.6hPa ONO 7.4mph /  11.9km/h 11mph /  17.7km/h 35% 0in /  0.0mm
18:09 61 °F /  16.1 °C 33.3 °F /  0.7 °C 29.8in /  1008.6hPa ONO 6.5mph /  10.5km/h 9.2mph /  14.8km/h 35.2% 0in /  0.0mm
18:14 60.6 °F /  15.9 °C 33.6 °F /  0.9 °C 29.8in /  1008.6hPa ONO 5.9mph /  9.5km/h 11.4mph /  18.3km/h 36% 0in /  0.0mm
18:19 60.4 °F /  15.8 °C 33.4 °F /  0.8 °C 29.8in /  1008.8hPa ONO 6.1mph /  9.8km/h 12mph /  19.3km/h 36% 0in /  0.0mm
18:24 60.4 °F /  15.8 °C 33.3 °F /  0.7 °C 29.8in /  1008.8hPa ONO 6.2mph /  10km/h 10mph /  16.1km/h 36% 0in /  0.0mm
18:29 60.4 °F /  15.8 °C 33.3 °F /  0.7 °C 29.8in /  1008.8hPa ONO 5.1mph /  8.2km/h 8mph /  12.9km/h 36% 0in /  0.0mm
18:34 60.3 °F /  15.7 °C 33.3 °F /  0.7 °C 29.8in /  1008.8hPa ONO 4.3mph /  6.9km/h 5.9mph /  9.5km/h 36% 0in /  0.0mm
18:39 60.3 °F /  15.7 °C 33.4 °F /  0.8 °C 29.8in /  1008.8hPa ONO 3.6mph /  5.8km/h 6.9mph /  11.1km/h 36.6% 0in /  0.0mm
18:44 60.1 °F /  15.6 °C 33.6 °F /  0.9 °C 29.8in /  1008.8hPa ONO 3.1mph /  5km/h 7mph /  11.3km/h 37% 0in /  0.0mm
18:49 59.7 °F /  15.4 °C 33.4 °F /  0.8 °C 29.8in /  1008.8hPa ONO 3.8mph /  6.1km/h 11.4mph /  18.3km/h 37% 0in /  0.0mm
18:54 59.5 °F /  15.3 °C 33.3 °F /  0.7 °C 29.8in /  1008.8hPa ONO 4.3mph /  6.9km/h 12mph /  19.3km/h 37% 0in /  0.0mm
18:59 59.5 °F /  15.3 °C 33.3 °F /  0.7 °C 29.8in /  1008.8hPa ONO 5.6mph /  9km/h 13.8mph /  22.2km/h 37% 0in /  0.0mm
19:04 59.5 °F /  15.3 °C 33.1 °F /  0.6 °C 29.8in /  1008.8hPa ONO 6.4mph /  10.3km/h 14mph /  22.5km/h 37% 0in /  0.0mm
19:09 59.5 °F /  15.3 °C 33.1 °F /  0.6 °C 29.8in /  1008.8hPa ONO 7.1mph /  11.4km/h 14mph /  22.5km/h 37% 0in /  0.0mm
19:14 59.4 °F /  15.2 °C 33.1 °F /  0.6 °C 29.8in /  1008.8hPa ONO 7.6mph /  12.2km/h 14mph /  22.5km/h 37% 0in /  0.0mm
19:19 59.4 °F /  15.2 °C 33.1 °F /  0.6 °C 29.8in /  1008.8hPa ONO 7.6mph /  12.2km/h 13mph /  20.9km/h 37% 0in /  0.0mm
19:24 59.2 °F /  15.1 °C 32.9 °F /  0.5 °C 29.8in /  1008.8hPa ONO 7.6mph /  12.2km/h 11.5mph /  18.5km/h 37% 0in /  0.0mm
19:29 59.2 °F /  15.1 °C 32.9 °F /  0.5 °C 29.8in /  1008.8hPa ONO 6.8mph /  11km/h 12mph /  19.3km/h 37% 0in /  0.0mm
19:34 59 °F /  15 °C 33.3 °F /  0.7 °C 29.8in /  1008.9hPa ONO 6.2mph /  10km/h 8.1mph /  13km/h 37.7% 0in /  0.0mm
19:39 59 °F /  15 °C 33.3 °F /  0.7 °C 29.8in /  1008.9hPa Oeste 5mph /  8km/h 8mph /  12.9km/h 38% 0in /  0.0mm
19:44 58.8 °F /  14.9 °C 33.3 °F /  0.7 °C 29.8in /  1008.9hPa SO 4mph /  6.5km/h 7mph /  11.3km/h 38% 0in /  0.0mm
19:49 58.6 °F /  14.8 °C 33.1 °F /  0.6 °C 29.8in /  1009.1hPa SO 3.8mph /  6.1km/h 6.2mph /  10km/h 38% 0in /  0.0mm
19:54 58.6 °F /  14.8 °C 33.6 °F /  0.9 °C 29.8in /  1009.1hPa SSO 3.6mph /  5.8km/h 6.2mph /  10km/h 38.9% 0in /  0.0mm
19:59 58.6 °F /  14.8 °C 33.6 °F /  0.9 °C 29.8in /  1009.1hPa SO 3.6mph /  5.8km/h 6.2mph /  10km/h 39% 0in /  0.0mm
20:04 58.5 °F /  14.7 °C 33.6 °F /  0.9 °C 29.8in /  1009.1hPa OSO 3.6mph /  5.8km/h 6mph /  9.7km/h 39% 0in /  0.0mm
20:09 58.5 °F /  14.7 °C 33.4 °F /  0.8 °C 29.8in /  1009.0hPa SO 3.9mph /  6.2km/h 6.4mph /  10.3km/h 39.1% 0in /  0.0mm
20:14 58.3 °F /  14.6 °C 33.4 °F /  0.8 °C 29.8in /  1009.0hPa SO 4mph /  6.5km/h 7mph /  11.3km/h 39.1% 0in /  0.0mm
20:19 58.3 °F /  14.6 °C 33.4 °F /  0.8 °C 29.8in /  1009.0hPa SSO 4mph /  6.5km/h 7mph /  11.3km/h 39% 0in /  0.0mm
20:24 58.5 °F /  14.7 °C 33.6 °F /  0.9 °C 29.8in /  1009.0hPa Sur 4mph /  6.5km/h 7.4mph /  11.9km/h 39% 0in /  0.0mm
20:29 58.5 °F /  14.7 °C 33.8 °F /  1 °C 29.8in /  1009.0hPa Sur 4.4mph /  7.1km/h 10.4mph /  16.7km/h 39.6% 0in /  0.0mm
20:34 57.9 °F /  14.4 °C 33.8 °F /  1 °C 29.8in /  1009.0hPa Sur 4.7mph /  7.6km/h 10mph /  16.1km/h 40% 0in /  0.0mm
20:39 57.7 °F /  14.3 °C 33.6 °F /  0.9 °C 29.8in /  1009.0hPa SSO 5.4mph /  8.7km/h 9mph /  14.5km/h 40% 0in /  0.0mm
20:44 57.7 °F /  14.3 °C 33.6 °F /  0.9 °C 29.8in /  1009.0hPa OSO 5.9mph /  9.5km/h 8mph /  12.9km/h 40.1% 0in /  0.0mm
20:49 57.7 °F /  14.3 °C 33.6 °F /  0.9 °C 29.8in /  1009.0hPa OSO 4.3mph /  6.9km/h 6mph /  9.7km/h 40% 0in /  0.0mm
20:54 57.7 °F /  14.3 °C 33.6 °F /  0.9 °C 29.8in /  1008.9hPa OSO 3.1mph /  5km/h 5mph /  8km/h 40% 0in /  0.0mm
20:59 57.7 °F /  14.3 °C 33.6 °F /  0.9 °C 29.8in /  1008.9hPa Oeste 3mph /  4.8km/h 5mph /  8km/h 40% 0in /  0.0mm
21:04 57.7 °F /  14.3 °C 33.6 °F /  0.9 °C 29.8in /  1008.9hPa Oeste 2.9mph /  4.6km/h 5.2mph /  8.4km/h 40% 0in /  0.0mm
21:09 57.7 °F /  14.3 °C 33.6 °F /  0.9 °C 29.8in /  1008.9hPa OSO 3mph /  4.8km/h 5.8mph /  9.3km/h 40% 0in /  0.0mm
21:14 57.7 °F /  14.3 °C 33.6 °F /  0.9 °C 29.8in /  1008.9hPa OSO 3.1mph /  5km/h 6mph /  9.7km/h 40% 0in /  0.0mm
21:19 57.9 °F /  14.4 °C 33.6 °F /  0.9 °C 29.8in /  1008.9hPa OSO 3.6mph /  5.8km/h 6mph /  9.7km/h 39.8% 0in /  0.0mm
21:24 57.9 °F /  14.4 °C 33.6 °F /  0.9 °C 29.8in /  1008.8hPa OSO 4mph /  6.5km/h 6mph /  9.7km/h 40% 0in /  0.0mm
21:29 57.9 °F /  14.4 °C 33.6 °F /  0.9 °C 29.8in /  1008.8hPa Oeste 3.4mph /  5.4km/h 5mph /  8km/h 40% 0in /  0.0mm
21:34 57.7 °F /  14.3 °C 33.6 °F /  0.9 °C 29.8in /  1008.8hPa Oeste 2.9mph /  4.7km/h 5.8mph /  9.3km/h 40% 0in /  0.0mm
21:39 57.7 °F /  14.3 °C 33.6 °F /  0.9 °C 29.8in /  1008.7hPa Oeste 3mph /  4.8km/h 6mph /  9.7km/h 40% 0in /  0.0mm
21:44 57.7 °F /  14.3 °C 33.6 °F /  0.9 °C 29.8in /  1008.7hPa Oeste 3.1mph /  5km/h 5mph /  8km/h 40% 0in /  0.0mm
21:49 57.6 °F /  14.2 °C 33.4 °F /  0.8 °C 29.8in /  1008.7hPa Oeste 2.5mph /  4km/h 5mph /  8km/h 40% 0in /  0.0mm
21:54 57.6 °F /  14.2 °C 33.4 °F /  0.8 °C 29.8in /  1008.6hPa OSO 2mph /  3.2km/h 5.8mph /  9.3km/h 40% 0in /  0.0mm
21:59 57.6 °F /  14.2 °C 33.4 °F /  0.8 °C 29.8in /  1008.6hPa OSO 2.5mph /  4.1km/h 6mph /  9.7km/h 40% 0in /  0.0mm
22:04 57.6 °F /  14.2 °C 33.4 °F /  0.8 °C 29.8in /  1008.6hPa OSO 2.9mph /  4.6km/h 6.2mph /  10km/h 40% 0in /  0.0mm
22:09 57.6 °F /  14.2 °C 33.6 °F /  0.9 °C 29.8in /  1008.5hPa SO 2.9mph /  4.7km/h 6mph /  9.7km/h 40.3% 0in /  0.0mm
22:14 57.6 °F /  14.2 °C 34 °F /  1.1 °C 29.8in /  1008.5hPa SSO 2.9mph /  4.7km/h 6.2mph /  10km/h 41.1% 0in /  0.0mm
22:19 57.4 °F /  14.1 °C 34 °F /  1.1 °C 29.8in /  1008.5hPa Sur 3mph /  4.8km/h 6mph /  9.7km/h 41% 0in /  0.0mm
22:24 57.4 °F /  14.1 °C 34 °F /  1.1 °C 29.8in /  1008.5hPa SSE 3.1mph /  5km/h 6mph /  9.7km/h 41% 0in /  0.0mm
22:29 57.2 °F /  14 °C 33.8 °F /  1 °C 29.8in /  1008.5hPa SSE 2.5mph /  4km/h 4.7mph /  7.6km/h 41% 0in /  0.0mm
22:34 57.2 °F /  14 °C 33.8 °F /  1 °C 29.8in /  1008.5hPa SSO 2mph /  3.2km/h 5.9mph /  9.5km/h 41% 0in /  0.0mm
22:39 57.4 °F /  14.1 °C 33.8 °F /  1 °C 29.8in /  1008.5hPa SO 2.9mph /  4.7km/h 6mph /  9.7km/h 41% 0in /  0.0mm
22:44 57.2 °F /  14 °C 33.8 °F /  1 °C 29.8in /  1008.5hPa SSO 3.6mph /  5.8km/h 7.4mph /  11.9km/h 41% 0in /  0.0mm
22:49 57.2 °F /  14 °C 33.6 °F /  0.9 °C 29.8in /  1008.5hPa Sur 4.2mph /  6.8km/h 9.2mph /  14.8km/h 41% 0in /  0.0mm
22:54 57 °F /  13.9 °C 33.4 °F /  0.8 °C 29.8in /  1008.5hPa SSO 4.7mph /  7.6km/h 9mph /  14.5km/h 41% 0in /  0.0mm
22:59 57 °F /  13.9 °C 34 °F /  1.1 °C 29.8in /  1008.5hPa SSO 4.3mph /  6.9km/h 6mph /  9.7km/h 41.7% 0in /  0.0mm
23:04 57 °F /  13.9 °C 34.2 °F /  1.2 °C 29.8in /  1008.5hPa SSO 4mph /  6.5km/h 5.2mph /  8.4km/h 42% 0in /  0.0mm
23:09 57 °F /  13.9 °C 34.2 °F /  1.2 °C 29.8in /  1008.4hPa SSO 3.5mph /  5.6km/h 5.2mph /  8.4km/h 42% 0in /  0.0mm
23:14 57 °F /  13.9 °C 34.2 °F /  1.2 °C 29.8in /  1008.4hPa OSO 3.1mph /  5km/h 5.9mph /  9.5km/h 42% 0in /  0.0mm
23:19 57 °F /  13.9 °C 34.2 °F /  1.2 °C 29.8in /  1008.4hPa OSO 3mph /  4.8km/h 6mph /  9.7km/h 42% 0in /  0.0mm
23:24 57 °F /  13.9 °C 34.2 °F /  1.2 °C 29.8in /  1008.3hPa SO 2.9mph /  4.7km/h 5.2mph /  8.4km/h 42.3% 0in /  0.0mm
23:29 56.7 °F /  13.7 °C 34.7 °F /  1.5 °C 29.8in /  1008.3hPa ESE 2.4mph /  3.8km/h 5mph /  8km/h 43.6% 0in /  0.0mm
23:34 56.3 °F /  13.5 °C 34.7 °F /  1.5 °C 29.8in /  1008.3hPa ESE 2mph /  3.2km/h 5mph /  8km/h 44.1% 0in /  0.0mm
23:39 56.1 °F /  13.4 °C 34.9 °F /  1.6 °C 29.8in /  1008.2hPa ESE 1.7mph /  2.7km/h 2.9mph /  4.7km/h 44.6% 0in /  0.0mm
23:44 56.1 °F /  13.4 °C 35.1 °F /  1.7 °C 29.8in /  1008.2hPa ESE 1.4mph /  2.2km/h 3.6mph /  5.8km/h 45% 0in /  0.0mm
23:49 55.9 °F /  13.3 °C 35.2 °F /  1.8 °C 29.8in /  1008.2hPa NNO 1.7mph /  2.8km/h 4.6mph /  7.4km/h 45.7% 0in /  0.0mm
23:54 55.8 °F /  13.2 °C 35.4 °F /  1.9 °C 29.8in /  1008.2hPa NO 2mph /  3.2km/h 5mph /  8km/h 46% 0in /  0.0mm
23:59 55.8 °F /  13.2 °C 35.4 °F /  1.9 °C 29.8in /  1008.2hPa NO 1.9mph /  3km/h 3mph /  4.8km/h 46.2% 0in /  0.0mm
Murcia-Puente Tocinos, Espa?a
Compliments of Weather Underground - 3.25 mb

La estación de MeteoMurcia.com, publica sus datos en los siguientes proyectos:

Weather Underground PWS IMURCIAP2 Meteoclimatic www.awekas.at

W3Counter
Web Analytics